RJNG(METAR)
05/28 02:00
METAR RJNG 271700Z 09002KT 9999 FEW030 BKN180 BKN/// 20/12 Q1011 RMK
1CU030 5AC180 A2986=
戻る
トップページへ戻る
IMOC Co,.Ltd.